sensor_id;sensor_type;location;lat;lon;timestamp;temperature;humidity
72380;SHT30;60354;47.798;12.472;2023-02-26T00:02:08;0.66;88.43
72380;SHT30;60354;47.798;12.472;2023-02-26T00:04:35;0.68;88.29
72380;SHT30;60354;47.798;12.472;2023-02-26T00:07:01;0.68;87.77
72380;SHT30;60354;47.798;12.472;2023-02-26T00:09:29;0.56;88.44
72380;SHT30;60354;47.798;12.472;2023-02-26T00:11:55;0.54;87.82
72380;SHT30;60354;47.798;12.472;2023-02-26T00:14:21;0.61;88.53
72380;SHT30;60354;47.798;12.472;2023-02-26T00:16:50;0.55;88.98
72380;SHT30;60354;47.798;12.472;2023-02-26T00:19:20;0.46;87.93
72380;SHT30;60354;47.798;12.472;2023-02-26T00:21:46;0.31;89.55
72380;SHT30;60354;47.798;12.472;2023-02-26T00:24:11;-0.21;89.49
72380;SHT30;60354;47.798;12.472;2023-02-26T00:26:36;-0.30;90.21
72380;SHT30;60354;47.798;12.472;2023-02-26T00:29:03;-0.33;90.53
72380;SHT30;60354;47.798;12.472;2023-02-26T00:31:28;-0.48;89.88
72380;SHT30;60354;47.798;12.472;2023-02-26T00:33:55;-0.53;90.16
72380;SHT30;60354;47.798;12.472;2023-02-26T00:41:54;-0.75;89.30
72380;SHT30;60354;47.798;12.472;2023-02-26T00:44:20;-0.69;88.99
72380;SHT30;60354;47.798;12.472;2023-02-26T00:46:55;-0.68;88.93
72380;SHT30;60354;47.798;12.472;2023-02-26T00:51:58;-0.71;89.49
72380;SHT30;60354;47.798;12.472;2023-02-26T00:54:27;-0.78;89.30
72380;SHT30;60354;47.798;12.472;2023-02-26T00:56:53;-0.67;90.42
72380;SHT30;60354;47.798;12.472;2023-02-26T00:59:20;-0.62;90.37
72380;SHT30;60354;47.798;12.472;2023-02-26T01:01:45;-0.53;89.73
72380;SHT30;60354;47.798;12.472;2023-02-26T01:04:13;-0.44;89.79
72380;SHT30;60354;47.798;12.472;2023-02-26T01:06:44;-0.48;89.76
72380;SHT30;60354;47.798;12.472;2023-02-26T01:11:58;-0.31;89.33
72380;SHT30;60354;47.798;12.472;2023-02-26T01:14:29;-0.40;89.08
72380;SHT30;60354;47.798;12.472;2023-02-26T01:20:19;-0.41;88.94
72380;SHT30;60354;47.798;12.472;2023-02-26T01:22:54;-0.41;89.23
72380;SHT30;60354;47.798;12.472;2023-02-26T01:25:30;-0.50;89.27
72380;SHT30;60354;47.798;12.472;2023-02-26T01:27:59;-0.48;89.77
72380;SHT30;60354;47.798;12.472;2023-02-26T01:30:25;-0.53;89.51
72380;SHT30;60354;47.798;12.472;2023-02-26T01:36:00;-0.53;88.72
72380;SHT30;60354;47.798;12.472;2023-02-26T01:41:30;-0.58;89.52
72380;SHT30;60354;47.798;12.472;2023-02-26T01:46:57;-0.57;89.36
72380;SHT30;60354;47.798;12.472;2023-02-26T01:49:24;-0.48;89.93
72380;SHT30;60354;47.798;12.472;2023-02-26T01:51:55;-0.54;89.73
72380;SHT30;60354;47.798;12.472;2023-02-26T01:54:28;-0.47;89.68
72380;SHT30;60354;47.798;12.472;2023-02-26T01:57:14;-0.53;89.22
72380;SHT30;60354;47.798;12.472;2023-02-26T01:59:43;-0.51;89.34
72380;SHT30;60354;47.798;12.472;2023-02-26T02:02:11;-0.53;89.45
72380;SHT30;60354;47.798;12.472;2023-02-26T02:04:38;-0.61;88.98
72380;SHT30;60354;47.798;12.472;2023-02-26T02:07:05;-0.50;89.40
72380;SHT30;60354;47.798;12.472;2023-02-26T02:09:31;-0.54;88.56
72380;SHT30;60354;47.798;12.472;2023-02-26T02:23:11;-0.47;88.88
72380;SHT30;60354;47.798;12.472;2023-02-26T02:31:10;-0.53;89.23
72380;SHT30;60354;47.798;12.472;2023-02-26T02:36:19;-0.40;89.28
72380;SHT30;60354;47.798;12.472;2023-02-26T02:39:14;-0.42;88.15
72380;SHT30;60354;47.798;12.472;2023-02-26T02:42:02;-0.44;89.48
72380;SHT30;60354;47.798;12.472;2023-02-26T02:44:31;-0.48;88.83
72380;SHT30;60354;47.798;12.472;2023-02-26T02:46:58;-0.41;88.58
72380;SHT30;60354;47.798;12.472;2023-02-26T02:49:32;-0.45;88.13
72380;SHT30;60354;47.798;12.472;2023-02-26T02:52:02;-0.48;87.44
72380;SHT30;60354;47.798;12.472;2023-02-26T02:54:59;-0.60;87.79
72380;SHT30;60354;47.798;12.472;2023-02-26T02:57:32;-0.65;88.00
72380;SHT30;60354;47.798;12.472;2023-02-26T03:00:09;-0.64;88.15
72380;SHT30;60354;47.798;12.472;2023-02-26T03:02:54;-0.67;88.09
72380;SHT30;60354;47.798;12.472;2023-02-26T03:05:22;-0.69;88.05
72380;SHT30;60354;47.798;12.472;2023-02-26T03:07:55;-0.91;86.63
72380;SHT30;60354;47.798;12.472;2023-02-26T03:10:21;-0.96;87.52
72380;SHT30;60354;47.798;12.472;2023-02-26T03:12:48;-0.81;88.10
72380;SHT30;60354;47.798;12.472;2023-02-26T03:15:17;-0.75;87.69
72380;SHT30;60354;47.798;12.472;2023-02-26T03:18:05;-0.68;87.17
72380;SHT30;60354;47.798;12.472;2023-02-26T03:20:36;-0.65;87.71
72380;SHT30;60354;47.798;12.472;2023-02-26T03:23:14;-0.58;87.31
72380;SHT30;60354;47.798;12.472;2023-02-26T03:25:57;-0.54;87.50
72380;SHT30;60354;47.798;12.472;2023-02-26T03:28:43;-0.54;86.72
72380;SHT30;60354;47.798;12.472;2023-02-26T03:31:19;-0.48;86.17
72380;SHT30;60354;47.798;12.472;2023-02-26T03:34:02;-0.45;85.58
72380;SHT30;60354;47.798;12.472;2023-02-26T03:36:32;-0.47;85.15
72380;SHT30;60354;47.798;12.472;2023-02-26T03:39:40;-0.51;85.67
72380;SHT30;60354;47.798;12.472;2023-02-26T03:42:23;-0.58;85.59
72380;SHT30;60354;47.798;12.472;2023-02-26T03:45:01;-0.68;84.90
72380;SHT30;60354;47.798;12.472;2023-02-26T03:47:30;-0.64;85.87
72380;SHT30;60354;47.798;12.472;2023-02-26T03:50:10;-0.68;85.84
72380;SHT30;60354;47.798;12.472;2023-02-26T03:52:48;-0.71;86.66
72380;SHT30;60354;47.798;12.472;2023-02-26T03:55:39;-0.84;85.39
72380;SHT30;60354;47.798;12.472;2023-02-26T03:58:20;-0.99;85.59
72380;SHT30;60354;47.798;12.472;2023-02-26T04:01:12;-0.86;86.09
72380;SHT30;60354;47.798;12.472;2023-02-26T04:04:08;-0.85;85.87
72380;SHT30;60354;47.798;12.472;2023-02-26T04:06:35;-0.82;84.63
72380;SHT30;60354;47.798;12.472;2023-02-26T04:09:02;-0.78;84.53
72380;SHT30;60354;47.798;12.472;2023-02-26T04:11:31;-0.92;82.48
72380;SHT30;60354;47.798;12.472;2023-02-26T04:13:58;-1.05;84.39
72380;SHT30;60354;47.798;12.472;2023-02-26T04:16:23;-1.20;84.72
72380;SHT30;60354;47.798;12.472;2023-02-26T04:18:49;-1.27;83.76
72380;SHT30;60354;47.798;12.472;2023-02-26T04:21:18;-1.33;84.53
72380;SHT30;60354;47.798;12.472;2023-02-26T04:23:45;-1.35;83.61
72380;SHT30;60354;47.798;12.472;2023-02-26T04:26:11;-1.35;85.10
72380;SHT30;60354;47.798;12.472;2023-02-26T04:28:39;-1.33;83.86
72380;SHT30;60354;47.798;12.472;2023-02-26T04:31:06;-1.26;84.15
72380;SHT30;60354;47.798;12.472;2023-02-26T04:33:32;-1.17;86.10
72380;SHT30;60354;47.798;12.472;2023-02-26T04:35:59;-1.21;84.87
72380;SHT30;60354;47.798;12.472;2023-02-26T04:38:26;-1.25;84.86
72380;SHT30;60354;47.798;12.472;2023-02-26T04:40:51;-1.33;83.53
72380;SHT30;60354;47.798;12.472;2023-02-26T04:43:18;-1.25;84.94
72380;SHT30;60354;47.798;12.472;2023-02-26T04:45:53;-1.21;85.24
72380;SHT30;60354;47.798;12.472;2023-02-26T04:48:19;-1.13;83.68
72380;SHT30;60354;47.798;12.472;2023-02-26T04:50:45;-1.02;84.88
72380;SHT30;60354;47.798;12.472;2023-02-26T04:53:11;-1.06;84.06
72380;SHT30;60354;47.798;12.472;2023-02-26T04:55:38;-0.98;85.22
72380;SHT30;60354;47.798;12.472;2023-02-26T04:58:06;-0.98;85.25
72380;SHT30;60354;47.798;12.472;2023-02-26T05:00:32;-1.16;84.35
72380;SHT30;60354;47.798;12.472;2023-02-26T05:02:58;-1.03;85.78
72380;SHT30;60354;47.798;12.472;2023-02-26T05:05:24;-1.02;84.61
72380;SHT30;60354;47.798;12.472;2023-02-26T05:07:50;-1.05;85.20
72380;SHT30;60354;47.798;12.472;2023-02-26T05:10:18;-0.95;85.50
72380;SHT30;60354;47.798;12.472;2023-02-26T05:12:44;-1.05;83.90
72380;SHT30;60354;47.798;12.472;2023-02-26T05:15:10;-1.03;84.14
72380;SHT30;60354;47.798;12.472;2023-02-26T05:17:35;-1.03;84.97
72380;SHT30;60354;47.798;12.472;2023-02-26T05:20:03;-1.06;85.06
72380;SHT30;60354;47.798;12.472;2023-02-26T05:22:29;-1.17;84.52
72380;SHT30;60354;47.798;12.472;2023-02-26T05:24:55;-1.17;85.49
72380;SHT30;60354;47.798;12.472;2023-02-26T05:27:20;-1.23;83.91
72380;SHT30;60354;47.798;12.472;2023-02-26T05:29:46;-1.09;85.30
72380;SHT30;60354;47.798;12.472;2023-02-26T05:32:13;-1.13;85.88
72380;SHT30;60354;47.798;12.472;2023-02-26T05:34:39;-1.16;86.01
72380;SHT30;60354;47.798;12.472;2023-02-26T05:37:04;-1.17;85.42
72380;SHT30;60354;47.798;12.472;2023-02-26T05:39:30;-1.12;85.90
72380;SHT30;60354;47.798;12.472;2023-02-26T05:41:55;-1.26;84.97
72380;SHT30;60354;47.798;12.472;2023-02-26T05:44:21;-1.19;85.00
72380;SHT30;60354;47.798;12.472;2023-02-26T05:46:47;-1.21;85.63
72380;SHT30;60354;47.798;12.472;2023-02-26T05:49:12;-1.19;86.10
72380;SHT30;60354;47.798;12.472;2023-02-26T05:51:38;-1.39;85.44
72380;SHT30;60354;47.798;12.472;2023-02-26T05:54:04;-1.33;87.19
72380;SHT30;60354;47.798;12.472;2023-02-26T05:56:30;-1.43;85.53
72380;SHT30;60354;47.798;12.472;2023-02-26T05:58:55;-1.36;85.75
72380;SHT30;60354;47.798;12.472;2023-02-26T06:01:21;-1.53;86.69
72380;SHT30;60354;47.798;12.472;2023-02-26T06:03:46;-1.51;86.78
72380;SHT30;60354;47.798;12.472;2023-02-26T06:06:13;-1.74;86.58
72380;SHT30;60354;47.798;12.472;2023-02-26T06:08:40;-1.68;87.31
72380;SHT30;60354;47.798;12.472;2023-02-26T06:11:06;-1.56;87.76
72380;SHT30;60354;47.798;12.472;2023-02-26T06:13:31;-1.48;87.50
72380;SHT30;60354;47.798;12.472;2023-02-26T06:15:57;-1.35;87.59
72380;SHT30;60354;47.798;12.472;2023-02-26T06:18:22;-1.39;87.32
72380;SHT30;60354;47.798;12.472;2023-02-26T06:20:48;-1.33;87.56
72380;SHT30;60354;47.798;12.472;2023-02-26T06:23:13;-1.33;88.11
72380;SHT30;60354;47.798;12.472;2023-02-26T06:25:42;-1.23;88.00
72380;SHT30;60354;47.798;12.472;2023-02-26T06:28:07;-1.25;87.84
72380;SHT30;60354;47.798;12.472;2023-02-26T06:30:34;-1.23;88.16
72380;SHT30;60354;47.798;12.472;2023-02-26T06:32:59;-1.19;86.97
72380;SHT30;60354;47.798;12.472;2023-02-26T06:35:25;-1.15;86.95
72380;SHT30;60354;47.798;12.472;2023-02-26T06:37:50;-1.12;86.96
72380;SHT30;60354;47.798;12.472;2023-02-26T06:40:16;-1.03;86.74
72380;SHT30;60354;47.798;12.472;2023-02-26T06:42:41;-1.05;86.42
72380;SHT30;60354;47.798;12.472;2023-02-26T06:45:07;-0.99;86.29
72380;SHT30;60354;47.798;12.472;2023-02-26T06:47:33;-1.26;86.29
72380;SHT30;60354;47.798;12.472;2023-02-26T06:49:58;-1.29;86.14
72380;SHT30;60354;47.798;12.472;2023-02-26T06:52:24;-1.21;85.84
72380;SHT30;60354;47.798;12.472;2023-02-26T06:54:49;-1.03;87.34
72380;SHT30;60354;47.798;12.472;2023-02-26T06:57:15;-0.88;86.59
72380;SHT30;60354;47.798;12.472;2023-02-26T06:59:40;-0.79;85.69
72380;SHT30;60354;47.798;12.472;2023-02-26T07:02:06;-0.68;85.12
72380;SHT30;60354;47.798;12.472;2023-02-26T07:04:31;-0.60;85.37
72380;SHT30;60354;47.798;12.472;2023-02-26T07:06:57;-0.55;84.57
72380;SHT30;60354;47.798;12.472;2023-02-26T07:09:23;-0.58;84.29
72380;SHT30;60354;47.798;12.472;2023-02-26T07:11:48;-0.54;84.35
72380;SHT30;60354;47.798;12.472;2023-02-26T07:14:14;-0.57;84.02
72380;SHT30;60354;47.798;12.472;2023-02-26T07:16:39;-0.47;83.99
72380;SHT30;60354;47.798;12.472;2023-02-26T07:19:05;-0.40;84.29
72380;SHT30;60354;47.798;12.472;2023-02-26T07:21:30;-0.47;84.42
72380;SHT30;60354;47.798;12.472;2023-02-26T07:23:56;-0.54;84.26
72380;SHT30;60354;47.798;12.472;2023-02-26T07:26:21;-0.58;84.23
72380;SHT30;60354;47.798;12.472;2023-02-26T07:28:47;-0.48;83.93
72380;SHT30;60354;47.798;12.472;2023-02-26T07:31:12;-0.53;83.54
72380;SHT30;60354;47.798;12.472;2023-02-26T07:33:38;-0.44;84.07
72380;SHT30;60354;47.798;12.472;2023-02-26T07:36:04;-0.33;83.46
72380;SHT30;60354;47.798;12.472;2023-02-26T07:38:30;-0.36;83.55
72380;SHT30;60354;47.798;12.472;2023-02-26T07:40:55;-0.54;83.22
72380;SHT30;60354;47.798;12.472;2023-02-26T07:43:22;-0.48;83.24
72380;SHT30;60354;47.798;12.472;2023-02-26T07:45:51;-0.54;83.10
72380;SHT30;60354;47.798;12.472;2023-02-26T07:48:17;-0.72;82.32
72380;SHT30;60354;47.798;12.472;2023-02-26T07:50:44;-0.57;83.03
72380;SHT30;60354;47.798;12.472;2023-02-26T07:53:10;-0.47;82.70
72380;SHT30;60354;47.798;12.472;2023-02-26T07:55:35;-0.48;82.86
72380;SHT30;60354;47.798;12.472;2023-02-26T07:58:00;-0.48;82.32
72380;SHT30;60354;47.798;12.472;2023-02-26T08:00:26;-0.50;82.16
72380;SHT30;60354;47.798;12.472;2023-02-26T08:02:51;-0.38;81.38
72380;SHT30;60354;47.798;12.472;2023-02-26T08:05:17;-0.33;82.61
72380;SHT30;60354;47.798;12.472;2023-02-26T08:07:43;-0.37;82.47
72380;SHT30;60354;47.798;12.472;2023-02-26T08:10:09;-0.48;82.79
72380;SHT30;60354;47.798;12.472;2023-02-26T08:12:34;-0.54;82.82
72380;SHT30;60354;47.798;12.472;2023-02-26T08:15:01;-0.51;82.92
72380;SHT30;60354;47.798;12.472;2023-02-26T08:17:27;-0.41;81.67
72380;SHT30;60354;47.798;12.472;2023-02-26T08:19:52;-0.26;82.78
72380;SHT30;60354;47.798;12.472;2023-02-26T08:22:18;-0.27;81.90
72380;SHT30;60354;47.798;12.472;2023-02-26T08:24:44;-0.17;82.49
72380;SHT30;60354;47.798;12.472;2023-02-26T08:27:09;-0.17;82.06
72380;SHT30;60354;47.798;12.472;2023-02-26T08:29:35;-0.16;80.69
72380;SHT30;60354;47.798;12.472;2023-02-26T08:32:01;-0.16;82.12
72380;SHT30;60354;47.798;12.472;2023-02-26T08:34:26;-0.11;81.88
72380;SHT30;60354;47.798;12.472;2023-02-26T08:36:52;0.04;81.13
72380;SHT30;60354;47.798;12.472;2023-02-26T08:39:17;0.04;81.48
72380;SHT30;60354;47.798;12.472;2023-02-26T08:41:43;0.17;80.91
72380;SHT30;60354;47.798;12.472;2023-02-26T08:44:08;0.08;79.31
72380;SHT30;60354;47.798;12.472;2023-02-26T08:46:35;0.38;79.44
72380;SHT30;60354;47.798;12.472;2023-02-26T08:49:00;0.52;79.01
72380;SHT30;60354;47.798;12.472;2023-02-26T08:51:25;0.58;79.01
72380;SHT30;60354;47.798;12.472;2023-02-26T08:53:51;0.48;78.79
72380;SHT30;60354;47.798;12.472;2023-02-26T08:56:17;0.48;78.52
72380;SHT30;60354;47.798;12.472;2023-02-26T08:58:43;0.37;79.35
72380;SHT30;60354;47.798;12.472;2023-02-26T09:01:08;0.21;78.94
72380;SHT30;60354;47.798;12.472;2023-02-26T09:03:34;0.32;79.17
72380;SHT30;60354;47.798;12.472;2023-02-26T09:05:59;0.69;79.28
72380;SHT30;60354;47.798;12.472;2023-02-26T09:08:25;0.77;76.78
72380;SHT30;60354;47.798;12.472;2023-02-26T09:10:51;0.56;78.36
72380;SHT30;60354;47.798;12.472;2023-02-26T09:13:16;0.70;78.67
72380;SHT30;60354;47.798;12.472;2023-02-26T09:15:42;0.82;79.34
72380;SHT30;60354;47.798;12.472;2023-02-26T09:18:09;0.90;77.97
72380;SHT30;60354;47.798;12.472;2023-02-26T09:20:41;0.85;79.18
72380;SHT30;60354;47.798;12.472;2023-02-26T09:23:07;0.87;77.63
72380;SHT30;60354;47.798;12.472;2023-02-26T09:25:33;0.82;78.99
72380;SHT30;60354;47.798;12.472;2023-02-26T09:27:58;0.93;78.80
72380;SHT30;60354;47.798;12.472;2023-02-26T09:30:24;0.28;79.75
72380;SHT30;60354;47.798;12.472;2023-02-26T09:32:49;0.19;80.80
72380;SHT30;60354;47.798;12.472;2023-02-26T09:35:14;0.25;80.76
72380;SHT30;60354;47.798;12.472;2023-02-26T09:37:40;0.32;81.21
72380;SHT30;60354;47.798;12.472;2023-02-26T09:40:06;0.41;79.62
72380;SHT30;60354;47.798;12.472;2023-02-26T09:45:02;0.52;79.66
72380;SHT30;60354;47.798;12.472;2023-02-26T09:47:41;0.44;80.21
72380;SHT30;60354;47.798;12.472;2023-02-26T09:50:25;0.40;79.84
72380;SHT30;60354;47.798;12.472;2023-02-26T09:57:56;0.40;80.73
72380;SHT30;60354;47.798;12.472;2023-02-26T10:00:45;0.28;80.57
72380;SHT30;60354;47.798;12.472;2023-02-26T10:03:33;0.79;80.61
72380;SHT30;60354;47.798;12.472;2023-02-26T10:06:17;0.75;79.33
72380;SHT30;60354;47.798;12.472;2023-02-26T10:14:08;1.20;78.62
72380;SHT30;60354;47.798;12.472;2023-02-26T10:16:39;1.06;79.08
72380;SHT30;60354;47.798;12.472;2023-02-26T10:19:13;1.01;79.19
72380;SHT30;60354;47.798;12.472;2023-02-26T10:21:50;1.00;79.22
72380;SHT30;60354;47.798;12.472;2023-02-26T10:24:44;0.87;79.14
72380;SHT30;60354;47.798;12.472;2023-02-26T10:27:16;0.68;80.37
72380;SHT30;60354;47.798;12.472;2023-02-26T10:32:35;0.58;80.44
72380;SHT30;60354;47.798;12.472;2023-02-26T10:35:05;0.87;79.73
72380;SHT30;60354;47.798;12.472;2023-02-26T10:40:19;0.61;78.54
72380;SHT30;60354;47.798;12.472;2023-02-26T10:43:15;0.66;79.24
72380;SHT30;60354;47.798;12.472;2023-02-26T10:51:23;0.59;80.49
72380;SHT30;60354;47.798;12.472;2023-02-26T10:53:54;0.70;80.43
72380;SHT30;60354;47.798;12.472;2023-02-26T10:56:29;0.65;78.80
72380;SHT30;60354;47.798;12.472;2023-02-26T10:58:55;0.66;79.10
72380;SHT30;60354;47.798;12.472;2023-02-26T11:01:23;0.86;79.95
72380;SHT30;60354;47.798;12.472;2023-02-26T11:04:04;0.45;79.98
72380;SHT30;60354;47.798;12.472;2023-02-26T11:06:33;0.54;79.52
72380;SHT30;60354;47.798;12.472;2023-02-26T11:09:01;0.61;78.82
72380;SHT30;60354;47.798;12.472;2023-02-26T11:11:47;0.65;78.33
72380;SHT30;60354;47.798;12.472;2023-02-26T11:14:14;0.75;76.91
72380;SHT30;60354;47.798;12.472;2023-02-26T11:17:01;1.50;76.84
72380;SHT30;60354;47.798;12.472;2023-02-26T11:19:33;1.47;74.82
72380;SHT30;60354;47.798;12.472;2023-02-26T11:22:01;1.94;74.43
72380;SHT30;60354;47.798;12.472;2023-02-26T11:24:33;1.94;74.06
72380;SHT30;60354;47.798;12.472;2023-02-26T11:27:00;2.13;74.44
72380;SHT30;60354;47.798;12.472;2023-02-26T11:29:35;2.05;73.83
72380;SHT30;60354;47.798;12.472;2023-02-26T11:32:03;2.30;71.92
72380;SHT30;60354;47.798;12.472;2023-02-26T11:34:29;2.30;73.31
72380;SHT30;60354;47.798;12.472;2023-02-26T11:36:58;2.23;72.14
72380;SHT30;60354;47.798;12.472;2023-02-26T11:39:27;2.09;74.03
72380;SHT30;60354;47.798;12.472;2023-02-26T11:41:57;1.51;72.76
72380;SHT30;60354;47.798;12.472;2023-02-26T11:44:39;1.72;74.08
72380;SHT30;60354;47.798;12.472;2023-02-26T11:47:17;1.85;70.58
72380;SHT30;60354;47.798;12.472;2023-02-26T11:49:48;1.54;71.48
72380;SHT30;60354;47.798;12.472;2023-02-26T11:52:40;1.98;70.46
72380;SHT30;60354;47.798;12.472;2023-02-26T11:55:21;2.05;70.36
72380;SHT30;60354;47.798;12.472;2023-02-26T11:57:51;1.37;71.38
72380;SHT30;60354;47.798;12.472;2023-02-26T12:00:29;1.22;75.82
72380;SHT30;60354;47.798;12.472;2023-02-26T12:02:59;1.48;74.48
72380;SHT30;60354;47.798;12.472;2023-02-26T12:05:26;1.67;75.30
72380;SHT30;60354;47.798;12.472;2023-02-26T12:07:52;1.41;75.99
72380;SHT30;60354;47.798;12.472;2023-02-26T12:10:25;1.03;79.15
72380;SHT30;60354;47.798;12.472;2023-02-26T12:16:20;0.80;80.95
72380;SHT30;60354;47.798;12.472;2023-02-26T12:19:02;0.86;80.72
72380;SHT30;60354;47.798;12.472;2023-02-26T12:33:33;1.81;78.10
72380;SHT30;60354;47.798;12.472;2023-02-26T12:47:03;3.13;72.70
72380;SHT30;60354;47.798;12.472;2023-02-26T12:49:40;3.40;70.65
72380;SHT30;60354;47.798;12.472;2023-02-26T12:52:31;2.67;72.88
72380;SHT30;60354;47.798;12.472;2023-02-26T13:20:18;1.31;79.68
72380;SHT30;60354;47.798;12.472;2023-02-26T13:23:16;1.48;79.44
72380;SHT30;60354;47.798;12.472;2023-02-26T13:25:54;1.51;78.51
72380;SHT30;60354;47.798;12.472;2023-02-26T13:28:28;1.45;79.57
72380;SHT30;60354;47.798;12.472;2023-02-26T13:30:59;1.19;80.35
72380;SHT30;60354;47.798;12.472;2023-02-26T13:33:29;0.99;81.18
72380;SHT30;60354;47.798;12.472;2023-02-26T13:35:55;0.80;82.66
72380;SHT30;60354;47.798;12.472;2023-02-26T13:41:06;0.48;84.24
72380;SHT30;60354;47.798;12.472;2023-02-26T13:53:59;0.83;82.29
72380;SHT30;60354;47.798;12.472;2023-02-26T14:02:00;-0.02;84.83
72380;SHT30;60354;47.798;12.472;2023-02-26T14:04:32;-0.16;85.81
72380;SHT30;60354;47.798;12.472;2023-02-26T14:06:59;-0.37;84.89
72380;SHT30;60354;47.798;12.472;2023-02-26T14:09:46;-0.30;85.91
72380;SHT30;60354;47.798;12.472;2023-02-26T14:12:30;-0.27;85.27
72380;SHT30;60354;47.798;12.472;2023-02-26T14:17:51;-0.34;84.89
72380;SHT30;60354;47.798;12.472;2023-02-26T14:20:29;-0.40;83.76
72380;SHT30;60354;47.798;12.472;2023-02-26T14:30:47;-0.16;83.74
72380;SHT30;60354;47.798;12.472;2023-02-26T14:33:16;-0.02;82.98
72380;SHT30;60354;47.798;12.472;2023-02-26T14:35:46;0.26;81.93
72380;SHT30;60354;47.798;12.472;2023-02-26T14:38:30;0.18;80.61
72380;SHT30;60354;47.798;12.472;2023-02-26T14:41:02;0.24;80.79
72380;SHT30;60354;47.798;12.472;2023-02-26T14:43:40;0.13;82.23
72380;SHT30;60354;47.798;12.472;2023-02-26T14:46:08;-0.23;83.34
72380;SHT30;60354;47.798;12.472;2023-02-26T14:48:35;-0.16;82.45
72380;SHT30;60354;47.798;12.472;2023-02-26T14:51:22;0.00;82.61
72380;SHT30;60354;47.798;12.472;2023-02-26T15:02:29;-0.37;82.63
72380;SHT30;60354;47.798;12.472;2023-02-26T15:05:20;-0.36;82.58
72380;SHT30;60354;47.798;12.472;2023-02-26T15:10:47;-0.10;82.52
72380;SHT30;60354;47.798;12.472;2023-02-26T15:13:40;0.03;81.83
72380;SHT30;60354;47.798;12.472;2023-02-26T15:19:04;-0.11;81.71
72380;SHT30;60354;47.798;12.472;2023-02-26T15:24:29;0.04;81.39
72380;SHT30;60354;47.798;12.472;2023-02-26T15:27:03;0.07;80.46
72380;SHT30;60354;47.798;12.472;2023-02-26T15:29:34;0.18;79.95
72380;SHT30;60354;47.798;12.472;2023-02-26T15:34:54;0.14;79.67
72380;SHT30;60354;47.798;12.472;2023-02-26T15:37:23;0.24;80.08
72380;SHT30;60354;47.798;12.472;2023-02-26T15:39:51;0.22;80.06
72380;SHT30;60354;47.798;12.472;2023-02-26T15:42:19;0.22;79.82
72380;SHT30;60354;47.798;12.472;2023-02-26T15:44:45;0.21;80.71
72380;SHT30;60354;47.798;12.472;2023-02-26T15:47:14;0.19;80.47
72380;SHT30;60354;47.798;12.472;2023-02-26T15:49:46;0.05;80.12
72380;SHT30;60354;47.798;12.472;2023-02-26T15:52:18;-0.02;79.64
72380;SHT30;60354;47.798;12.472;2023-02-26T15:57:11;0.13;80.76
72380;SHT30;60354;47.798;12.472;2023-02-26T15:59:45;0.21;80.55
72380;SHT30;60354;47.798;12.472;2023-02-26T16:02:14;0.11;78.75
72380;SHT30;60354;47.798;12.472;2023-02-26T16:04:40;0.08;80.56
72380;SHT30;60354;47.798;12.472;2023-02-26T16:07:09;-0.05;80.85
72380;SHT30;60354;47.798;12.472;2023-02-26T16:09:39;-0.16;81.13
72380;SHT30;60354;47.798;12.472;2023-02-26T16:12:11;-0.27;81.04
72380;SHT30;60354;47.798;12.472;2023-02-26T16:14:43;-0.23;81.52
72380;SHT30;60354;47.798;12.472;2023-02-26T16:17:13;-0.34;81.04
72380;SHT30;60354;47.798;12.472;2023-02-26T16:19:42;-0.40;81.81
72380;SHT30;60354;47.798;12.472;2023-02-26T16:22:24;-0.41;81.46
72380;SHT30;60354;47.798;12.472;2023-02-26T16:25:05;-0.44;82.09
72380;SHT30;60354;47.798;12.472;2023-02-26T16:27:32;-0.44;82.78
72380;SHT30;60354;47.798;12.472;2023-02-26T16:30:00;-0.37;82.67
72380;SHT30;60354;47.798;12.472;2023-02-26T16:32:29;-0.28;82.60
72380;SHT30;60354;47.798;12.472;2023-02-26T16:34:58;-0.26;82.49
72380;SHT30;60354;47.798;12.472;2023-02-26T16:45:42;-0.36;83.35
72380;SHT30;60354;47.798;12.472;2023-02-26T16:48:24;-0.37;83.69
72380;SHT30;60354;47.798;12.472;2023-02-26T16:51:04;-0.40;82.43
72380;SHT30;60354;47.798;12.472;2023-02-26T16:53:44;-0.38;83.26
72380;SHT30;60354;47.798;12.472;2023-02-26T16:56:15;-0.36;83.32
72380;SHT30;60354;47.798;12.472;2023-02-26T17:01:56;-0.76;83.89
72380;SHT30;60354;47.798;12.472;2023-02-26T17:04:34;-0.86;84.57
72380;SHT30;60354;47.798;12.472;2023-02-26T17:07:01;-0.89;85.05
72380;SHT30;60354;47.798;12.472;2023-02-26T17:09:38;-0.86;84.74
72380;SHT30;60354;47.798;12.472;2023-02-26T17:12:09;-0.88;84.13
72380;SHT30;60354;47.798;12.472;2023-02-26T17:14:38;-0.86;83.91
72380;SHT30;60354;47.798;12.472;2023-02-26T17:17:05;-0.75;84.45
72380;SHT30;60354;47.798;12.472;2023-02-26T17:19:31;-0.67;84.17
72380;SHT30;60354;47.798;12.472;2023-02-26T17:21:57;-0.62;82.89
72380;SHT30;60354;47.798;12.472;2023-02-26T17:24:37;-0.51;82.92
72380;SHT30;60354;47.798;12.472;2023-02-26T17:27:13;-0.48;82.88
72380;SHT30;60354;47.798;12.472;2023-02-26T17:29:42;-0.38;83.09
72380;SHT30;60354;47.798;12.472;2023-02-26T17:32:24;-0.36;82.93
72380;SHT30;60354;47.798;12.472;2023-02-26T17:34:55;-0.33;83.55
72380;SHT30;60354;47.798;12.472;2023-02-26T17:37:23;-0.31;83.70
72380;SHT30;60354;47.798;12.472;2023-02-26T17:39:49;-0.37;84.41
72380;SHT30;60354;47.798;12.472;2023-02-26T17:42:17;-0.38;83.96
72380;SHT30;60354;47.798;12.472;2023-02-26T17:44:47;-0.36;84.35
72380;SHT30;60354;47.798;12.472;2023-02-26T17:47:19;-0.37;84.41
72380;SHT30;60354;47.798;12.472;2023-02-26T17:49:46;-0.31;84.39
72380;SHT30;60354;47.798;12.472;2023-02-26T17:52:12;-0.31;84.17
72380;SHT30;60354;47.798;12.472;2023-02-26T17:54:38;-0.33;84.08
72380;SHT30;60354;47.798;12.472;2023-02-26T17:57:04;-0.38;84.08
72380;SHT30;60354;47.798;12.472;2023-02-26T17:59:30;-0.31;84.70
72380;SHT30;60354;47.798;12.472;2023-02-26T18:01:55;-0.30;84.52
72380;SHT30;60354;47.798;12.472;2023-02-26T18:04:21;-0.33;84.14
72380;SHT30;60354;47.798;12.472;2023-02-26T18:06:47;-0.37;83.87
72380;SHT30;60354;47.798;12.472;2023-02-26T18:09:13;-0.33;83.72
72380;SHT30;60354;47.798;12.472;2023-02-26T18:11:39;-0.26;83.65
72380;SHT30;60354;47.798;12.472;2023-02-26T18:14:06;-0.28;83.54
72380;SHT30;60354;47.798;12.472;2023-02-26T18:16:38;-0.40;83.84
72380;SHT30;60354;47.798;12.472;2023-02-26T18:19:04;-0.34;84.09
72380;SHT30;60354;47.798;12.472;2023-02-26T18:21:31;-0.36;83.70
72380;SHT30;60354;47.798;12.472;2023-02-26T18:23:57;-0.45;84.15
72380;SHT30;60354;47.798;12.472;2023-02-26T18:26:26;-0.45;84.94
72380;SHT30;60354;47.798;12.472;2023-02-26T18:28:53;-0.44;84.53
72380;SHT30;60354;47.798;12.472;2023-02-26T18:31:20;-0.44;84.73
72380;SHT30;60354;47.798;12.472;2023-02-26T18:33:47;-0.50;84.74
72380;SHT30;60354;47.798;12.472;2023-02-26T18:36:18;-0.54;84.93
72380;SHT30;60354;47.798;12.472;2023-02-26T18:38:45;-0.45;84.68
72380;SHT30;60354;47.798;12.472;2023-02-26T18:41:10;-0.40;84.11